Main page
METAR-TAF:

METAR-TAF

Airports :

Verona Villafranca Airport

Verona, Italy

latitude: 45-23N, longitude: 010-52E, elevation: 67 m

Current weather observation

The report was made 33 minutes ago, at 12:50 UTC
Wind 4 kt from variable directions
Temperature 16°C
Humidity 25%
Pressure 1020 hPa
Visibility 10 km or more
Few clouds at a height of 3000 ft

METAR: LIPX 261250Z VRB04KT 9999 FEW030 16/M04 Q1020

Time: 14:23 (13:23 UTC)

Forecast

The report was made 2 hours and 23 minutes ago, at 11:00 UTC
Forecast valid from 26 at 12 UTC to 26 at 21 UTC
Wind 8 kt from the East
Visibility 10 km or more
no clouds below 1500 m and no cumulonimbus

TAF: LIPX 261100Z 2612/2621 09008KT CAVOK

Weather observations and forecasts of more than 4000 airports (METAR and TAF reports).

The available stations are represented by yellow and red dots on the map.

Hover mouse over dot to see the name of the station.

Then click to see weather observations and forecasts.

To change the map : click on the green buttons with a black cross to zoom in, on the green button with a dash to zoom out, or on the green arrows for adjacent maps.


METAR-TAF: